Time,TemperatureF,DewpointF,PressureIn,WindDirection,WindDirectionDegrees,WindSpeedMPH,WindSpeedGustMPH,Humidity,HourlyPrecipIn,Conditions,Clouds,dailyrainin,SoftwareType,DateUTC
2013-03-24 00:00:00,37.4,21.4,29.94,NE,45,2.9,4.5,52,0.00,,,0.00,WUHU216HW,2013-03-24 04:00:00,
2013-03-24 00:05:00,37.3,20.8,29.94,NNE,23,4.5,4.5,51,0.00,,,0.00,WUHU216HW,2013-03-24 04:05:00,
2013-03-24 00:10:00,37.1,20.6,29.94,NE,45,2.9,4.5,51,0.00,,,0.00,WUHU216HW,2013-03-24 04:10:00,
2013-03-24 00:15:00,37.1,20.6,29.94,ENE,68,1.3,5.4,51,0.00,,,0.00,WUHU216HW,2013-03-24 04:15:00,
2013-03-24 00:20:00,36.9,20.1,29.94,SE,135,0.7,5.4,50,0.00,,,0.00,WUHU216HW,2013-03-24 04:20:00,
2013-03-24 00:25:00,36.7,19.9,29.94,SE,135,0.9,1.8,50,0.00,,,0.00,WUHU216HW,2013-03-24 04:25:00,
2013-03-24 00:30:00,36.5,19.7,29.94,SE,135,0.0,0.9,50,0.00,,,0.00,WUHU216HW,2013-03-24 04:30:00,
2013-03-24 00:35:00,36.4,20.0,29.94,SE,135,0.0,0.7,51,0.00,,,0.00,WUHU216HW,2013-03-24 04:35:00,
2013-03-24 00:40:00,35.8,19.1,29.94,SE,135,0.0,0.7,50,0.00,,,0.00,WUHU216HW,2013-03-24 04:40:00,
2013-03-24 00:45:00,35.6,18.9,29.95,SE,135,0.0,0.7,50,0.00,,,0.00,WUHU216HW,2013-03-24 04:45:00,
2013-03-24 00:50:00,35.1,19.6,29.95,NNE,23,1.3,1.3,53,0.00,,,0.00,WUHU216HW,2013-03-24 04:50:00,
2013-03-24 00:55:00,34.6,19.1,29.94,NE,45,2.5,2.9,53,0.00,,,0.00,WUHU216HW,2013-03-24 04:55:00,
2013-03-24 01:00:00,34.6,19.1,29.94,NNE,23,2.5,2.9,53,0.00,,,0.00,WUHU216HW,2013-03-24 05:00:00,
2013-03-24 01:05:00,34.4,18.9,29.94,ENE,68,1.1,2.5,53,0.00,,,0.00,WUHU216HW,2013-03-24 05:05:00,
2013-03-24 01:10:00,34.4,18.9,29.93,SE,135,0.0,1.1,53,0.00,,,0.00,WUHU216HW,2013-03-24 05:10:00,
2013-03-24 01:11:00,34.4,18.9,29.93,ESE,113,0.4,0.4,53,0.00,,,0.00,WUHU216HW,2013-03-24 05:11:00,
2013-03-24 01:15:00,34.4,18.9,29.93,ESE,113,0.4,0.9,53,0.00,,,0.00,WUHU216HW,2013-03-24 05:15:00,
2013-03-24 01:20:00,34.4,18.9,29.93,ESE,113,0.4,0.4,53,0.00,,,0.00,WUHU216HW,2013-03-24 05:20:00,
2013-03-24 02:00:00,32.2,18.6,29.94,NE,45,1.8,1.8,57,0.00,,,0.00,WUHU216HW,2013-03-24 06:00:00,
2013-03-24 02:05:00,32.2,18.6,29.94,NE,45,1.8,1.8,57,0.00,,,0.00,WUHU216HW,2013-03-24 06:05:00,
2013-03-24 03:00:00,30.1,17.5,29.93,SSW,203,0.0,0.0,59,0.00,,,0.00,WUHU216HW,2013-03-24 07:00:00,
2013-03-24 03:05:00,30.1,17.5,29.93,SSW,203,0.0,0.0,59,0.00,,,0.00,WUHU216HW,2013-03-24 07:05:00,
2013-03-24 03:59:00,28.6,18.0,29.94,SW,225,0.0,0.0,64,0.00,,,0.00,WUHU216HW,2013-03-24 07:59:00,
2013-03-24 04:00:00,28.6,18.0,29.94,SW,225,0.0,0.0,64,0.00,,,0.00,WUHU216HW,2013-03-24 08:00:00,
2013-03-24 04:05:00,28.6,18.0,29.94,SW,225,0.0,0.0,64,0.00,,,0.00,WUHU216HW,2013-03-24 08:05:00,
2013-03-24 05:00:00,28.1,18.2,29.94,NNW,338,0.0,0.0,66,0.00,,,0.00,WUHU216HW,2013-03-24 09:00:00,
2013-03-24 05:05:00,28.3,18.4,29.94,NNW,338,0.0,0.0,66,0.00,,,0.00,WUHU216HW,2013-03-24 09:05:00,
2013-03-24 05:10:00,28.3,18.0,29.94,NNW,338,0.0,0.0,65,0.00,,,0.00,WUHU216HW,2013-03-24 09:10:00,
2013-03-24 05:15:00,28.3,18.0,29.93,NNW,338,0.0,0.0,65,0.00,,,0.00,WUHU216HW,2013-03-24 09:15:00,
2013-03-24 05:20:00,28.3,18.0,29.93,NNW,338,0.0,0.0,65,0.00,,,0.00,WUHU216HW,2013-03-24 09:20:00,
2013-03-24 05:25:00,28.4,18.2,29.93,NNW,338,0.0,0.0,65,0.00,,,0.00,WUHU216HW,2013-03-24 09:25:00,
2013-03-24 05:30:00,28.3,18.0,29.92,NNW,338,0.0,0.0,65,0.00,,,0.00,WUHU216HW,2013-03-24 09:30:00,
2013-03-24 05:35:00,28.3,18.0,29.92,NNW,338,0.0,0.0,65,0.00,,,0.00,WUHU216HW,2013-03-24 09:35:00,
2013-03-24 05:40:00,28.3,18.0,29.92,NNW,338,0.0,0.0,65,0.00,,,0.00,WUHU216HW,2013-03-24 09:40:00,
2013-03-24 05:45:00,28.3,18.0,29.92,NNW,338,0.0,0.0,65,0.00,,,0.00,WUHU216HW,2013-03-24 09:45:00,
2013-03-24 05:50:00,28.3,18.0,29.92,NNW,338,0.0,0.0,65,0.00,,,0.00,WUHU216HW,2013-03-24 09:50:00,
2013-03-24 05:55:00,28.3,18.0,29.91,NNW,338,0.0,0.0,65,0.00,,,0.00,WUHU216HW,2013-03-24 09:55:00,
2013-03-24 06:00:00,28.1,17.8,29.92,NW,315,0.0,0.0,65,0.00,,,0.00,WUHU216HW,2013-03-24 10:00:00,
2013-03-24 06:05:00,28.1,18.2,29.91,NW,315,0.0,0.0,66,0.00,,,0.00,WUHU216HW,2013-03-24 10:05:00,
2013-03-24 06:10:00,28.1,17.8,29.92,WNW,293,0.0,0.0,65,0.00,,,0.00,WUHU216HW,2013-03-24 10:10:00,
2013-03-24 06:15:00,28.1,18.2,29.91,WNW,293,0.0,0.0,66,0.00,,,0.00,WUHU216HW,2013-03-24 10:15:00,
2013-03-24 06:20:00,27.9,18.0,29.92,WNW,293,0.0,0.0,66,0.00,,,0.00,WUHU216HW,2013-03-24 10:20:00,
2013-03-24 06:25:00,27.9,18.7,29.92,WNW,293,0.0,0.0,68,0.00,,,0.00,WUHU216HW,2013-03-24 10:25:00,
2013-03-24 06:30:00,27.9,18.4,29.92,SW,225,0.2,0.2,67,0.00,,,0.00,WUHU216HW,2013-03-24 10:30:00,
2013-03-24 06:35:00,28.1,18.5,29.92,SW,225,0.0,0.7,67,0.00,,,0.00,WUHU216HW,2013-03-24 10:35:00,
2013-03-24 06:40:00,28.1,18.2,29.92,SW,225,0.0,0.7,66,0.00,,,0.00,WUHU216HW,2013-03-24 10:40:00,
2013-03-24 06:45:00,28.1,18.5,29.92,SW,225,0.0,0.0,67,0.00,,,0.00,WUHU216HW,2013-03-24 10:45:00,
2013-03-24 06:50:00,28.1,18.5,29.93,SW,225,0.4,0.4,67,0.00,,,0.00,WUHU216HW,2013-03-24 10:50:00,
2013-03-24 06:55:00,28.1,19.3,29.94,SW,225,0.0,0.4,69,0.00,,,0.00,WUHU216HW,2013-03-24 10:55:00,
2013-03-24 07:00:00,28.1,18.5,29.93,SW,225,0.0,0.0,67,0.00,,,0.00,WUHU216HW,2013-03-24 11:00:00,
2013-03-24 07:05:00,28.1,18.9,29.93,SW,225,0.0,0.0,68,0.00,,,0.00,WUHU216HW,2013-03-24 11:05:00,
2013-03-24 07:10:00,28.1,18.9,29.93,SW,225,0.0,0.0,68,0.00,,,0.00,WUHU216HW,2013-03-24 11:10:00,
2013-03-24 07:15:00,28.1,18.9,29.93,SW,225,0.0,0.0,68,0.00,,,0.00,WUHU216HW,2013-03-24 11:15:00,
2013-03-24 07:20:00,28.1,18.9,29.93,SW,225,0.0,0.0,68,0.00,,,0.00,WUHU216HW,2013-03-24 11:20:00,
2013-03-24 07:25:00,28.3,19.1,29.92,SW,225,0.0,0.0,68,0.00,,,0.00,WUHU216HW,2013-03-24 11:25:00,
2013-03-24 07:30:00,28.4,19.3,29.93,SW,225,0.0,0.0,68,0.00,,,0.00,WUHU216HW,2013-03-24 11:30:00,
2013-03-24 07:35:00,28.4,19.6,29.92,SW,225,0.0,0.0,69,0.00,,,0.00,WUHU216HW,2013-03-24 11:35:00,
2013-03-24 07:40:00,28.4,19.3,29.93,SW,225,0.0,0.0,68,0.00,,,0.00,WUHU216HW,2013-03-24 11:40:00,
2013-03-24 07:45:00,28.4,19.3,29.92,SW,225,0.0,0.0,68,0.00,,,0.00,WUHU216HW,2013-03-24 11:45:00,
2013-03-24 07:50:00,28.4,19.3,29.93,SW,225,0.0,0.0,68,0.00,,,0.00,WUHU216HW,2013-03-24 11:50:00,
2013-03-24 07:55:00,28.8,20.4,29.92,SW,225,0.0,0.0,70,0.00,,,0.00,WUHU216HW,2013-03-24 11:55:00,
2013-03-24 08:00:00,29.0,20.4,29.92,SW,225,0.0,0.0,70,0.00,,,0.00,WUHU216HW,2013-03-24 12:00:00,
2013-03-24 08:05:00,29.0,20.1,29.92,SW,225,0.0,0.0,69,0.00,,,0.00,WUHU216HW,2013-03-24 12:05:00,
2013-03-24 08:10:00,29.2,20.3,29.92,SW,225,0.0,0.0,69,0.00,,,0.00,WUHU216HW,2013-03-24 12:10:00,
2013-03-24 08:15:00,29.5,21.0,29.92,SW,225,0.0,0.4,70,0.00,,,0.00,WUHU216HW,2013-03-24 12:15:00,
2013-03-24 08:20:00,29.9,21.2,29.92,SW,225,0.0,0.4,70,0.00,,,0.00,WUHU216HW,2013-03-24 12:20:00,
2013-03-24 08:25:00,30.1,21.4,29.92,SW,225,0.0,0.4,70,0.00,,,0.00,WUHU216HW,2013-03-24 12:25:00,
2013-03-24 08:30:00,30.4,21.8,29.92,SW,225,0.0,0.4,70,0.00,,,0.00,WUHU216HW,2013-03-24 12:30:00,
2013-03-24 08:35:00,30.8,21.8,29.92,SW,225,0.0,0.0,69,0.00,,,0.00,WUHU216HW,2013-03-24 12:35:00,
2013-03-24 08:40:00,31.1,22.1,29.91,SW,225,1.1,1.1,69,0.00,,,0.00,WUHU216HW,2013-03-24 12:40:00,
2013-03-24 08:45:00,31.5,22.9,29.90,NNE,23,2.5,2.5,70,0.00,,,0.00,WUHU216HW,2013-03-24 12:45:00,
2013-03-24 08:50:00,31.9,22.9,29.90,NE,45,3.1,3.1,69,0.00,,,0.00,WUHU216HW,2013-03-24 12:50:00,
2013-03-24 08:55:00,32.4,23.4,29.89,NE,45,1.6,3.1,69,0.00,,,0.00,WUHU216HW,2013-03-24 12:55:00,
2013-03-24 09:00:00,32.8,23.7,29.88,NNE,23,2.0,2.7,69,0.00,,,0.00,WUHU216HW,2013-03-24 13:00:00,
2013-03-24 09:05:00,33.1,23.7,29.88,NE,45,1.8,2.7,68,0.00,,,0.00,WUHU216HW,2013-03-24 13:05:00,
2013-03-24 09:10:00,33.5,23.6,29.88,ENE,68,2.0,2.5,67,0.00,,,0.00,WUHU216HW,2013-03-24 13:10:00,
2013-03-24 09:15:00,33.8,23.6,29.88,NNE,23,3.4,3.4,66,0.00,,,0.00,WUHU216HW,2013-03-24 13:15:00,
2013-03-24 09:20:00,34.0,23.4,29.88,NNE,23,1.8,3.4,65,0.00,,,0.00,WUHU216HW,2013-03-24 13:20:00,
2013-03-24 09:25:00,34.2,23.6,29.88,ENE,68,2.2,3.6,65,0.00,,,0.00,WUHU216HW,2013-03-24 13:25:00,
2013-03-24 09:30:00,34.6,23.6,29.89,NNE,23,1.8,3.6,64,0.00,,,0.00,WUHU216HW,2013-03-24 13:30:00,
2013-03-24 09:35:00,34.9,23.6,29.87,North,0,3.6,4.0,63,0.00,,,0.00,WUHU216HW,2013-03-24 13:35:00,
2013-03-24 09:40:00,35.1,23.8,29.87,NE,45,2.7,4.0,63,0.00,,,0.00,WUHU216HW,2013-03-24 13:40:00,
2013-03-24 09:45:00,35.5,23.8,29.87,NNE,23,3.4,5.8,62,0.00,,,0.00,WUHU216HW,2013-03-24 13:45:00,
2013-03-24 09:50:00,35.6,23.6,29.87,ENE,68,3.4,5.8,61,0.00,,,0.00,WUHU216HW,2013-03-24 13:50:00,
2013-03-24 09:55:00,36.0,23.6,29.87,NNE,23,5.1,5.1,60,0.00,,,0.00,WUHU216HW,2013-03-24 13:55:00,
2013-03-24 10:00:00,36.2,23.7,29.87,NE,45,2.0,5.1,60,0.00,,,0.00,WUHU216HW,2013-03-24 14:00:00,
2013-03-24 10:05:00,36.4,23.9,29.88,ENE,68,2.2,3.8,60,0.00,,,0.00,WUHU216HW,2013-03-24 14:05:00,
2013-03-24 10:10:00,36.9,24.4,29.87,ENE,68,3.4,3.4,60,0.00,,,0.00,WUHU216HW,2013-03-24 14:10:00,
2013-03-24 10:15:00,36.9,24.0,29.87,NNE,23,2.2,3.4,59,0.00,,,0.00,WUHU216HW,2013-03-24 14:15:00,
2013-03-24 10:20:00,37.1,24.1,29.87,NE,45,1.1,2.5,59,0.00,,,0.00,WUHU216HW,2013-03-24 14:20:00,
2013-03-24 10:25:00,37.4,23.9,29.86,NE,45,1.6,2.9,58,0.00,,,0.00,WUHU216HW,2013-03-24 14:25:00,
2013-03-24 10:30:00,37.8,24.3,29.86,NE,45,3.8,3.8,58,0.00,,,0.00,WUHU216HW,2013-03-24 14:30:00,
2013-03-24 10:35:00,37.8,23.9,29.86,East,90,2.5,3.8,57,0.00,,,0.00,WUHU216HW,2013-03-24 14:35:00,
2013-03-24 10:40:00,37.8,23.4,29.86,NNE,23,2.2,3.4,56,0.00,,,0.00,WUHU216HW,2013-03-24 14:40:00,
2013-03-24 10:45:00,38.0,24.0,29.85,ENE,68,1.8,3.4,57,0.00,,,0.00,WUHU216HW,2013-03-24 14:45:00,
2013-03-24 10:50:00,38.2,23.8,29.85,NE,45,4.0,4.3,56,0.00,,,0.00,WUHU216HW,2013-03-24 14:50:00,
2013-03-24 10:55:00,38.2,23.8,29.85,North,0,1.1,4.3,56,0.00,,,0.00,WUHU216HW,2013-03-24 14:55:00,
2013-03-24 11:00:00,38.5,24.5,29.85,NE,45,2.2,3.4,57,0.00,,,0.00,WUHU216HW,2013-03-24 15:00:00,
2013-03-24 11:05:00,38.5,24.1,29.85,NNE,23,1.6,3.4,56,0.00,,,0.00,WUHU216HW,2013-03-24 15:05:00,
2013-03-24 11:10:00,38.7,23.9,29.84,ESE,113,2.2,3.4,55,0.00,,,0.00,WUHU216HW,2013-03-24 15:10:00,
2013-03-24 11:15:00,38.5,23.2,29.85,North,0,0.9,4.3,54,0.00,,,0.00,WUHU216HW,2013-03-24 15:15:00,
2013-03-24 11:20:00,38.5,23.7,29.85,NE,45,2.5,4.3,55,0.00,,,0.00,WUHU216HW,2013-03-24 15:20:00,
2013-03-24 11:25:00,38.7,23.9,29.84,ENE,68,2.2,3.4,55,0.00,,,0.00,WUHU216HW,2013-03-24 15:25:00,
2013-03-24 11:30:00,38.9,23.9,29.84,NNE,23,1.1,3.4,55,0.00,,,0.00,WUHU216HW,2013-03-24 15:30:00,
2013-03-24 11:35:00,38.9,23.6,29.84,ENE,68,2.5,4.3,54,0.00,,,0.00,WUHU216HW,2013-03-24 15:35:00,
2013-03-24 11:40:00,39.1,23.7,29.84,ENE,68,2.5,4.3,54,0.00,,,0.00,WUHU216HW,2013-03-24 15:40:00,
2013-03-24 11:45:00,39.2,23.9,29.84,ENE,68,1.6,3.4,54,0.00,,,0.00,WUHU216HW,2013-03-24 15:45:00,
2013-03-24 11:50:00,39.4,24.0,29.84,East,90,1.6,4.7,54,0.00,,,0.00,WUHU216HW,2013-03-24 15:50:00,
2013-03-24 11:55:00,39.6,24.2,29.83,East,90,0.7,4.7,54,0.00,,,0.00,WUHU216HW,2013-03-24 15:55:00,
2013-03-24 12:00:00,40.0,24.6,29.83,NE,45,1.6,4.0,54,0.00,,,0.00,WUHU216HW,2013-03-24 16:00:00,
2013-03-24 12:05:00,40.1,24.3,29.82,NE,45,4.0,4.0,53,0.00,,,0.00,WUHU216HW,2013-03-24 16:05:00,
2013-03-24 12:10:00,40.1,24.3,29.82,ENE,68,2.0,4.0,53,0.00,,,0.00,WUHU216HW,2013-03-24 16:10:00,
2013-03-24 12:15:00,40.3,24.5,29.82,ENE,68,3.4,3.4,53,0.00,,,0.00,WUHU216HW,2013-03-24 16:15:00,
2013-03-24 12:20:00,40.3,23.6,29.81,WSW,248,0.9,3.4,51,0.00,,,0.00,WUHU216HW,2013-03-24 16:20:00,
2013-03-24 12:25:00,40.1,23.4,29.81,ESE,113,1.3,2.9,51,0.00,,,0.00,WUHU216HW,2013-03-24 16:25:00,
2013-03-24 12:30:00,40.3,24.0,29.80,NE,45,2.2,2.2,52,0.00,,,0.00,WUHU216HW,2013-03-24 16:30:00,
2013-03-24 12:35:00,40.7,23.9,29.79,ENE,68,4.9,4.9,51,0.00,,,0.00,WUHU216HW,2013-03-24 16:35:00,
2013-03-24 12:40:00,40.7,23.9,29.79,ESE,113,2.0,4.9,51,0.00,,,0.00,WUHU216HW,2013-03-24 16:40:00,
2013-03-24 12:45:00,40.7,24.3,29.79,ENE,68,3.8,3.8,52,0.00,,,0.00,WUHU216HW,2013-03-24 16:45:00,
2013-03-24 12:50:00,40.7,23.9,29.79,East,90,2.0,3.8,51,0.00,,,0.00,WUHU216HW,2013-03-24 16:50:00,
2013-03-24 12:55:00,40.9,24.0,29.79,ESE,113,1.8,3.8,51,0.00,,,0.00,WUHU216HW,2013-03-24 16:55:00,
2013-03-24 13:00:00,41.0,24.2,29.79,ENE,68,1.6,2.5,51,0.00,,,0.00,WUHU216HW,2013-03-24 17:00:00,
2013-03-24 13:05:00,41.2,24.4,29.78,ESE,113,0.2,2.7,51,0.00,,,0.00,WUHU216HW,2013-03-24 17:05:00,
2013-03-24 13:10:00,41.6,24.3,29.78,South,180,3.4,3.8,50,0.00,,,0.00,WUHU216HW,2013-03-24 17:10:00,
2013-03-24 13:15:00,41.4,24.1,29.77,East,90,1.1,3.8,50,0.00,,,0.00,WUHU216HW,2013-03-24 17:15:00,
2013-03-24 13:20:00,41.2,23.9,29.77,NE,45,2.7,3.4,50,0.00,,,0.00,WUHU216HW,2013-03-24 17:20:00,
2013-03-24 13:25:00,41.2,24.4,29.76,NE,45,1.1,3.4,51,0.00,,,0.00,WUHU216HW,2013-03-24 17:25:00,
2013-03-24 13:30:00,41.2,24.4,29.75,ESE,113,0.4,3.4,51,0.00,,,0.00,WUHU216HW,2013-03-24 17:30:00,
2013-03-24 13:35:00,41.4,24.6,29.75,SSE,158,2.5,3.4,51,0.00,,,0.00,WUHU216HW,2013-03-24 17:35:00,
2013-03-24 13:40:00,41.8,24.5,29.74,ENE,68,2.2,3.4,50,0.00,,,0.00,WUHU216HW,2013-03-24 17:40:00,
2013-03-24 13:45:00,41.8,24.5,29.74,ENE,68,2.5,3.8,50,0.00,,,0.00,WUHU216HW,2013-03-24 17:45:00,
2013-03-24 13:50:00,41.8,24.5,29.73,NNE,23,1.3,4.0,50,0.00,,,0.00,WUHU216HW,2013-03-24 17:50:00,
2013-03-24 13:55:00,41.8,24.5,29.73,ESE,113,2.0,4.0,50,0.00,,,0.00,WUHU216HW,2013-03-24 17:55:00,
2013-03-24 14:00:00,41.9,24.7,29.72,ESE,113,3.1,3.1,50,0.00,,,0.00,WUHU216HW,2013-03-24 18:00:00,
2013-03-24 14:05:00,42.1,24.3,29.72,NNW,338,0.4,3.4,49,0.00,,,0.00,WUHU216HW,2013-03-24 18:05:00,
2013-03-24 14:10:00,42.1,24.3,29.71,ESE,113,2.0,3.4,49,0.00,,,0.00,WUHU216HW,2013-03-24 18:10:00,
2013-03-24 14:15:00,42.7,24.8,29.71,ENE,68,4.9,4.9,49,0.00,,,0.00,WUHU216HW,2013-03-24 18:15:00,
2013-03-24 14:20:00,42.7,24.3,29.71,ENE,68,1.8,4.9,48,0.00,,,0.00,WUHU216HW,2013-03-24 18:20:00,
2013-03-24 14:25:00,42.8,25.0,29.70,SE,135,3.1,4.0,49,0.00,,,0.00,WUHU216HW,2013-03-24 18:25:00,
2013-03-24 14:30:00,43.0,25.2,29.70,South,180,0.2,4.0,49,0.00,,,0.00,WUHU216HW,2013-03-24 18:30:00,
2013-03-24 14:35:00,43.0,25.2,29.70,NE,45,1.8,2.0,49,0.00,,,0.00,WUHU216HW,2013-03-24 18:35:00,
2013-03-24 14:40:00,42.8,24.5,29.70,SE,135,2.9,2.9,48,0.00,,,0.00,WUHU216HW,2013-03-24 18:40:00,
2013-03-24 14:45:00,42.5,24.1,29.70,ESE,113,1.6,3.4,48,0.00,,,0.00,WUHU216HW,2013-03-24 18:45:00,
2013-03-24 14:50:00,42.1,23.8,29.70,South,180,0.9,3.4,48,0.00,,,0.00,WUHU216HW,2013-03-24 18:50:00,
2013-03-24 14:55:00,41.8,23.4,29.70,SSW,203,2.5,3.4,48,0.00,,,0.00,WUHU216HW,2013-03-24 18:55:00,
2013-03-24 15:00:00,41.8,23.4,29.70,SSE,158,0.9,3.4,48,0.00,,,0.00,WUHU216HW,2013-03-24 19:00:00,
2013-03-24 15:05:00,41.6,23.8,29.70,ENE,68,2.2,2.7,49,0.00,,,0.00,WUHU216HW,2013-03-24 19:05:00,
2013-03-24 15:10:00,41.4,23.6,29.70,ENE,68,2.7,2.7,49,0.00,,,0.00,WUHU216HW,2013-03-24 19:10:00,
2013-03-24 15:15:00,41.2,23.4,29.70,SSW,203,1.3,2.7,49,0.00,,,0.00,WUHU216HW,2013-03-24 19:15:00,
2013-03-24 15:20:00,41.0,23.2,29.70,North,0,0.4,1.3,49,0.00,,,0.00,WUHU216HW,2013-03-24 19:20:00,
2013-03-24 15:25:00,40.9,23.0,29.70,SSW,203,0.7,1.3,49,0.00,,,0.00,WUHU216HW,2013-03-24 19:25:00,
2013-03-24 15:30:00,40.7,23.0,29.70,South,180,2.2,2.2,49,0.00,,,0.00,WUHU216HW,2013-03-24 19:30:00,
2013-03-24 15:35:00,40.7,23.0,29.70,SSE,158,1.3,2.2,49,0.00,,,0.00,WUHU216HW,2013-03-24 19:35:00,
2013-03-24 15:40:00,40.5,22.8,29.70,South,180,0.2,2.2,49,0.00,,,0.00,WUHU216HW,2013-03-24 19:40:00,
2013-03-24 15:45:00,40.7,23.0,29.69,SSE,158,1.1,2.2,49,0.00,,,0.00,WUHU216HW,2013-03-24 19:45:00,
2013-03-24 15:50:00,40.5,22.2,29.69,SSE,158,0.0,1.6,48,0.00,,,0.00,WUHU216HW,2013-03-24 19:50:00,
2013-03-24 15:55:00,40.1,22.4,29.69,North,0,0.4,1.6,49,0.00,,,0.00,WUHU216HW,2013-03-24 19:55:00,
2013-03-24 16:00:00,40.0,22.8,29.69,ENE,68,0.9,3.4,50,0.00,,,0.00,WUHU216HW,2013-03-24 20:00:00,
2013-03-24 16:05:00,39.8,24.0,29.69,SSE,158,1.1,3.4,53,0.00,,,0.00,WUHU216HW,2013-03-24 20:05:00,
2013-03-24 16:10:00,39.2,23.4,29.69,SE,135,2.0,2.5,53,0.00,,,0.00,WUHU216HW,2013-03-24 20:10:00,
2013-03-24 16:15:00,38.9,23.9,29.69,SSE,158,0.2,2.0,55,0.00,,,0.00,WUHU216HW,2013-03-24 20:15:00,
2013-03-24 16:20:00,38.5,24.5,29.69,SSE,158,1.1,1.8,57,0.00,,,0.00,WUHU216HW,2013-03-24 20:20:00,
2013-03-24 16:25:00,38.3,24.4,29.69,South,180,0.4,1.1,57,0.00,,,0.00,WUHU216HW,2013-03-24 20:25:00,
2013-03-24 16:30:00,37.8,26.3,29.69,North,0,0.4,1.1,63,0.00,,,0.00,WUHU216HW,2013-03-24 20:30:00,
2013-03-24 16:35:00,37.1,27.2,29.69,North,0,0.0,0.4,67,0.00,,,0.00,WUHU216HW,2013-03-24 20:35:00,
2013-03-24 16:40:00,36.2,26.3,29.69,North,0,0.0,0.7,67,0.00,,,0.00,WUHU216HW,2013-03-24 20:40:00,
2013-03-24 16:45:00,35.8,25.6,29.69,ESE,113,1.1,1.1,66,0.00,,,0.00,WUHU216HW,2013-03-24 20:45:00,
2013-03-24 16:50:00,35.6,25.4,29.69,ENE,68,0.0,1.1,66,0.00,,,0.00,WUHU216HW,2013-03-24 20:50:00,
2013-03-24 16:55:00,35.6,25.4,29.69,ENE,68,0.0,0.2,66,0.00,,,0.00,WUHU216HW,2013-03-24 20:55:00,
2013-03-24 17:00:00,35.6,25.4,29.68,ENE,68,0.0,0.4,66,0.00,,,0.00,WUHU216HW,2013-03-24 21:00:00,
2013-03-24 17:05:00,35.5,25.2,29.68,ENE,68,0.0,0.4,66,0.00,,,0.00,WUHU216HW,2013-03-24 21:05:00,
2013-03-24 17:10:00,35.5,25.2,29.68,ENE,68,0.0,0.0,66,0.00,,,0.00,WUHU216HW,2013-03-24 21:10:00,
2013-03-24 17:15:00,35.5,25.6,29.68,ENE,68,0.0,0.0,67,0.00,,,0.00,WUHU216HW,2013-03-24 21:15:00,
2013-03-24 17:20:00,35.5,25.6,29.67,ENE,68,0.0,0.0,67,0.00,,,0.00,WUHU216HW,2013-03-24 21:20:00,
2013-03-24 17:25:00,35.5,26.3,29.67,ENE,68,0.0,0.0,69,0.00,,,0.00,WUHU216HW,2013-03-24 21:25:00,
2013-03-24 17:30:00,35.5,25.9,29.67,ENE,68,0.0,0.0,68,0.00,,,0.00,WUHU216HW,2013-03-24 21:30:00,
2013-03-24 17:35:00,35.3,26.1,29.67,ENE,68,0.0,0.0,69,0.00,,,0.00,WUHU216HW,2013-03-24 21:35:00,
2013-03-24 17:40:00,35.5,26.3,29.68,ENE,68,0.0,0.0,69,0.00,,,0.00,WUHU216HW,2013-03-24 21:40:00,
2013-03-24 17:45:00,35.5,26.6,29.68,ENE,68,0.0,0.0,70,0.00,,,0.00,WUHU216HW,2013-03-24 21:45:00,
2013-03-24 17:50:00,35.5,27.0,29.68,ENE,68,0.0,0.0,71,0.00,,,0.00,WUHU216HW,2013-03-24 21:50:00,
2013-03-24 17:56:00,35.3,26.8,29.68,ENE,68,0.0,0.0,71,0.00,,,0.00,WUHU216HW,2013-03-24 21:56:00,
2013-03-24 18:01:00,34.9,27.1,29.68,ENE,68,0.0,0.0,73,0.00,,,0.00,WUHU216HW,2013-03-24 22:01:00,
2013-03-24 18:06:00,34.7,26.9,29.68,ENE,68,0.0,0.0,73,0.00,,,0.00,WUHU216HW,2013-03-24 22:06:00,
2013-03-24 18:11:00,34.6,26.7,29.68,ENE,68,0.0,0.0,73,0.00,,,0.00,WUHU216HW,2013-03-24 22:11:00,
2013-03-24 18:16:00,34.4,26.6,29.68,ENE,68,0.0,0.0,73,0.00,,,0.00,WUHU216HW,2013-03-24 22:16:00,
2013-03-24 18:21:00,34.6,26.7,29.68,ENE,68,0.0,0.0,73,0.00,,,0.00,WUHU216HW,2013-03-24 22:21:00,
2013-03-24 18:26:00,34.7,26.9,29.67,ENE,68,0.0,0.0,73,0.00,,,0.00,WUHU216HW,2013-03-24 22:26:00,
2013-03-24 18:31:00,34.7,26.9,29.67,ENE,68,0.0,0.0,73,0.00,,,0.00,WUHU216HW,2013-03-24 22:31:00,
2013-03-24 18:36:00,34.6,26.7,29.67,ENE,68,0.0,0.0,73,0.00,,,0.00,WUHU216HW,2013-03-24 22:36:00,
2013-03-24 18:41:00,34.6,26.7,29.67,ENE,68,0.0,0.0,73,0.00,,,0.00,WUHU216HW,2013-03-24 22:41:00,
2013-03-24 18:46:00,34.6,26.7,29.66,ENE,68,0.0,0.0,73,0.00,,,0.00,WUHU216HW,2013-03-24 22:46:00,
2013-03-24 18:51:00,34.4,26.6,29.67,ENE,68,0.0,0.0,73,0.00,,,0.00,WUHU216HW,2013-03-24 22:51:00,
2013-03-24 18:57:00,34.4,26.8,29.67,ENE,68,0.0,0.0,74,0.00,,,0.00,WUHU216HW,2013-03-24 22:57:00,
2013-03-24 19:01:00,34.2,26.4,29.67,ENE,68,0.0,0.0,73,0.00,,,0.00,WUHU216HW,2013-03-24 23:01:00,
2013-03-24 19:07:00,34.2,26.4,29.66,ENE,68,0.0,0.0,73,0.00,,,0.00,WUHU216HW,2013-03-24 23:07:00,
2013-03-24 19:12:00,34.0,26.2,29.66,ENE,68,0.0,0.0,73,0.00,,,0.00,WUHU216HW,2013-03-24 23:12:00,
2013-03-24 19:17:00,33.8,26.0,29.66,ENE,68,0.0,0.0,73,0.00,,,0.00,WUHU216HW,2013-03-24 23:17:00,
2013-03-24 19:22:00,33.8,26.0,29.67,ENE,68,0.0,0.0,73,0.00,,,0.00,WUHU216HW,2013-03-24 23:22:00,
2013-03-24 19:27:00,33.7,26.2,29.67,ENE,68,0.0,0.0,74,0.00,,,0.00,WUHU216HW,2013-03-24 23:27:00,
2013-03-24 19:32:00,33.7,26.2,29.67,ENE,68,0.0,0.0,74,0.00,,,0.00,WUHU216HW,2013-03-24 23:32:00,
2013-03-24 19:37:00,33.5,26.0,29.66,ENE,68,0.0,0.0,74,0.00,,,0.00,WUHU216HW,2013-03-24 23:37:00,
2013-03-24 19:42:00,33.5,26.3,29.66,ENE,68,0.0,0.0,75,0.00,,,0.00,WUHU216HW,2013-03-24 23:42:00,
2013-03-24 19:47:00,33.3,26.2,29.66,ENE,68,0.0,0.0,75,0.00,,,0.00,WUHU216HW,2013-03-24 23:47:00,
2013-03-24 19:52:00,33.1,26.3,29.66,ENE,68,0.0,0.0,76,0.00,,,0.00,WUHU216HW,2013-03-24 23:52:00,
2013-03-24 19:57:00,33.1,26.3,29.66,ENE,68,0.0,0.0,76,0.00,,,0.00,WUHU216HW,2013-03-24 23:57:00,
2013-03-24 20:00:00,33.1,26.3,29.66,ENE,68,0.0,0.0,76,0.00,,,0.00,WUHU216HW,2013-03-25 00:00:00,
2013-03-24 20:02:00,33.1,26.3,29.66,ENE,68,0.0,0.0,76,0.00,,,0.00,WUHU216HW,2013-03-25 00:02:00,
2013-03-24 20:07:00,33.1,26.3,29.66,ENE,68,0.0,0.0,76,0.00,,,0.00,WUHU216HW,2013-03-25 00:07:00,
2013-03-24 20:30:00,32.8,26.3,29.66,ENE,68,0.0,0.0,77,0.00,,,0.00,WUHU216HW,2013-03-25 00:30:00,
2013-03-24 20:35:00,32.8,26.0,29.65,ENE,68,0.0,0.0,76,0.00,,,0.00,WUHU216HW,2013-03-25 00:35:00,
2013-03-24 20:40:00,32.8,26.0,29.65,ENE,68,0.0,0.0,76,0.00,,,0.00,WUHU216HW,2013-03-25 00:40:00,
2013-03-24 20:45:00,32.8,26.0,29.64,ENE,68,0.0,0.0,76,0.00,,,0.00,WUHU216HW,2013-03-25 00:45:00,
2013-03-24 21:00:00,32.8,26.3,29.64,ENE,68,0.0,0.0,77,0.00,,,0.00,WUHU216HW,2013-03-25 01:00:00,
2013-03-24 21:05:00,32.8,26.6,29.63,ENE,68,0.0,0.0,78,0.00,,,0.00,WUHU216HW,2013-03-25 01:05:00,
2013-03-24 21:10:00,32.6,26.8,29.63,ENE,68,0.0,0.0,79,0.00,,,0.00,WUHU216HW,2013-03-25 01:10:00,
2013-03-24 21:15:00,32.6,26.5,29.63,ENE,68,0.0,0.0,78,0.00,,,0.00,WUHU216HW,2013-03-25 01:15:00,
2013-03-24 21:20:00,32.4,26.3,29.63,ENE,68,0.0,0.0,78,0.00,,,0.00,WUHU216HW,2013-03-25 01:20:00,
2013-03-24 21:25:00,32.4,26.3,29.63,ENE,68,0.0,0.0,78,0.00,,,0.00,WUHU216HW,2013-03-25 01:25:00,
2013-03-24 21:30:00,32.4,26.3,29.64,ENE,68,0.0,0.0,78,0.00,,,0.00,WUHU216HW,2013-03-25 01:30:00,
2013-03-24 21:35:00,32.4,26.6,29.63,ENE,68,0.0,0.0,79,0.00,,,0.00,WUHU216HW,2013-03-25 01:35:00,
2013-03-24 21:40:00,32.4,26.6,29.64,ENE,68,0.0,0.0,79,0.00,,,0.00,WUHU216HW,2013-03-25 01:40:00,
2013-03-24 21:45:00,32.4,27.0,29.64,ENE,68,0.0,0.0,80,0.00,,,0.00,WUHU216HW,2013-03-25 01:45:00,
2013-03-24 21:50:00,32.4,26.6,29.64,ENE,68,0.0,0.0,79,0.00,,,0.00,WUHU216HW,2013-03-25 01:50:00,
2013-03-24 21:55:00,32.4,26.6,29.65,ENE,68,0.0,0.0,79,0.00,,,0.00,WUHU216HW,2013-03-25 01:55:00,
2013-03-24 22:00:00,32.4,26.3,29.65,ENE,68,0.0,0.0,78,0.00,,,0.00,WUHU216HW,2013-03-25 02:00:00,
2013-03-24 22:05:00,32.4,26.3,29.65,ENE,68,0.0,0.0,78,0.00,,,0.00,WUHU216HW,2013-03-25 02:05:00,
2013-03-24 22:10:00,32.6,26.5,29.65,ENE,68,0.0,0.0,78,0.00,,,0.00,WUHU216HW,2013-03-25 02:10:00,
2013-03-24 22:15:00,32.6,26.5,29.64,ENE,68,0.0,0.0,78,0.00,,,0.00,WUHU216HW,2013-03-25 02:15:00,
2013-03-24 22:20:00,32.6,26.5,29.64,ENE,68,0.0,0.0,78,0.00,,,0.00,WUHU216HW,2013-03-25 02:20:00,
2013-03-24 22:25:00,32.6,26.5,29.64,ENE,68,0.0,0.0,78,0.00,,,0.00,WUHU216HW,2013-03-25 02:25:00,
2013-03-24 22:30:00,32.6,26.5,29.64,ENE,68,0.0,0.0,78,0.00,,,0.00,WUHU216HW,2013-03-25 02:30:00,
2013-03-24 22:35:00,32.4,26.6,29.64,ENE,68,0.0,0.0,79,0.00,,,0.00,WUHU216HW,2013-03-25 02:35:00,
2013-03-24 22:40:00,32.4,26.3,29.63,ENE,68,0.0,0.0,78,0.00,,,0.00,WUHU216HW,2013-03-25 02:40:00,
2013-03-24 22:45:00,32.4,26.6,29.63,ENE,68,0.0,0.0,79,0.00,,,0.00,WUHU216HW,2013-03-25 02:45:00,
2013-03-24 22:50:00,32.4,26.6,29.62,ENE,68,0.0,0.0,79,0.00,,,0.00,WUHU216HW,2013-03-25 02:50:00,
2013-03-24 22:55:00,32.4,26.6,29.62,ENE,68,0.0,0.0,79,0.00,,,0.00,WUHU216HW,2013-03-25 02:55:00,
2013-03-24 23:00:00,32.4,26.6,29.62,ENE,68,0.0,0.0,79,0.00,,,0.00,WUHU216HW,2013-03-25 03:00:00,
2013-03-24 23:05:00,32.4,26.6,29.61,ENE,68,0.0,0.0,79,0.00,,,0.00,WUHU216HW,2013-03-25 03:05:00,
2013-03-24 23:10:00,32.4,26.6,29.61,ENE,68,0.0,0.0,79,0.00,,,0.00,WUHU216HW,2013-03-25 03:10:00,
2013-03-24 23:15:00,32.4,26.6,29.61,ENE,68,0.0,0.0,79,0.00,,,0.00,WUHU216HW,2013-03-25 03:15:00,
2013-03-24 23:20:00,32.4,26.6,29.61,ENE,68,0.0,0.0,79,0.00,,,0.00,WUHU216HW,2013-03-25 03:20:00,
2013-03-24 23:25:00,32.4,26.6,29.60,ENE,68,0.0,0.0,79,0.00,,,0.00,WUHU216HW,2013-03-25 03:25:00,
2013-03-24 23:30:00,32.4,26.6,29.60,ENE,68,0.0,0.0,79,0.00,,,0.00,WUHU216HW,2013-03-25 03:30:00,
2013-03-24 23:35:00,32.4,26.6,29.60,ENE,68,0.0,0.0,79,0.00,,,0.00,WUHU216HW,2013-03-25 03:35:00,
2013-03-24 23:40:00,32.4,26.6,29.59,ENE,68,0.0,0.0,79,0.00,,,0.00,WUHU216HW,2013-03-25 03:40:00,
2013-03-24 23:45:00,32.4,27.0,29.59,ENE,68,0.0,0.0,80,0.00,,,0.00,WUHU216HW,2013-03-25 03:45:00,
2013-03-24 23:50:00,32.2,26.8,29.59,ENE,68,0.0,0.0,80,0.00,,,0.00,WUHU216HW,2013-03-25 03:50:00,
2013-03-24 23:55:00,32.2,26.8,29.58,ENE,68,0.0,0.0,80,0.00,,,0.00,WUHU216HW,2013-03-25 03:55:00,